createdAt,value
2018-09-06T00:00:18.565Z,94.30
2018-09-06T00:01:23.142Z,94.30
2018-09-06T00:02:26.533Z,94.30
2018-09-06T00:03:30.131Z,94.20
2018-09-06T00:04:33.521Z,94.20
2018-09-06T00:05:38.765Z,94.10
2018-09-06T00:06:42.197Z,94.20
2018-09-06T00:07:45.669Z,94.20
2018-09-06T00:08:49.083Z,94.20
2018-09-06T00:09:52.477Z,94.30
2018-09-06T00:10:57.218Z,94.40
2018-09-06T00:12:00.673Z,94.50
2018-09-06T00:13:04.099Z,94.60
2018-09-06T00:14:07.517Z,94.60
2018-09-06T00:15:12.179Z,94.70
2018-09-06T00:16:16.794Z,94.80
2018-09-06T00:17:20.265Z,94.80
2018-09-06T00:18:23.656Z,95.00
2018-09-06T00:19:27.213Z,95.10
2018-09-06T00:20:31.797Z,95.10
2018-09-06T00:21:35.272Z,95.20
2018-09-06T00:22:38.719Z,95.20
2018-09-06T00:23:42.190Z,95.30
2018-09-06T00:24:45.657Z,95.40
2018-09-06T00:25:49.978Z,95.50
2018-09-06T00:26:53.421Z,95.40
2018-09-06T00:27:56.952Z,95.50
2018-09-06T00:29:00.344Z,95.50
2018-09-06T00:30:04.474Z,95.50
2018-09-06T00:31:09.027Z,95.60
2018-09-06T00:32:12.500Z,95.60
2018-09-06T00:33:15.907Z,95.60
2018-09-06T00:34:19.346Z,95.60
2018-09-06T00:35:24.131Z,95.50
2018-09-06T00:36:28.708Z,95.60
2018-09-06T00:37:32.117Z,95.60
2018-09-06T00:38:35.568Z,95.60
2018-09-06T00:39:39.042Z,95.60
2018-09-06T00:40:43.449Z,95.60
2018-09-06T00:41:46.864Z,95.60
2018-09-06T00:42:50.281Z,95.60
2018-09-06T00:43:53.694Z,95.60
2018-09-06T00:44:57.091Z,95.60
2018-09-06T00:46:00.587Z,95.60
2018-09-06T00:47:03.977Z,95.60
2018-09-06T00:48:07.391Z,95.60
2018-09-06T00:49:10.864Z,95.50
2018-09-06T00:50:21.304Z,95.60
2018-09-06T00:51:25.616Z,95.60
2018-09-06T00:52:29.064Z,95.70
2018-09-06T00:53:32.478Z,95.70
2018-09-06T00:54:35.879Z,95.80
2018-09-06T00:55:40.411Z,95.80
2018-09-06T00:56:43.857Z,95.80
2018-09-06T00:57:47.299Z,95.80
2018-09-06T00:58:50.699Z,95.80
2018-09-06T00:59:54.323Z,95.80
2018-09-06T01:00:58.648Z,95.80
2018-09-06T01:02:02.323Z,95.80
2018-09-06T01:03:05.937Z,95.80
2018-09-06T01:04:09.405Z,95.70
2018-09-06T01:05:14.131Z,95.70
2018-09-06T01:06:18.517Z,95.70
2018-09-06T01:07:21.935Z,95.70
2018-09-06T01:08:25.428Z,95.70
2018-09-06T01:09:28.931Z,95.70
2018-09-06T01:10:33.359Z,95.70
2018-09-06T01:11:36.783Z,95.70
2018-09-06T01:12:40.181Z,95.70
2018-09-06T01:13:43.622Z,95.70
2018-09-06T01:14:47.146Z,95.70
2018-09-06T01:15:52.500Z,95.60
2018-09-06T01:16:55.970Z,95.70
2018-09-06T01:18:00.329Z,95.70
2018-09-06T01:19:03.766Z,95.70
2018-09-06T01:20:08.920Z,95.80
2018-09-06T01:21:13.421Z,95.80
2018-09-06T01:22:16.933Z,95.90
2018-09-06T01:23:20.351Z,95.90
2018-09-06T01:24:23.782Z,95.90
2018-09-06T01:25:33.069Z,95.90
2018-09-06T01:26:36.600Z,95.90
2018-09-06T01:27:40.012Z,96.00
2018-09-06T01:28:43.395Z,96.00
2018-09-06T01:29:46.869Z,96.00
2018-09-06T01:30:52.087Z,96.00
2018-09-06T01:31:55.580Z,96.10
2018-09-06T01:32:58.976Z,96.10
2018-09-06T01:34:02.397Z,96.20
2018-09-06T01:35:06.826Z,96.20
2018-09-06T01:36:16.316Z,96.10
2018-09-06T01:37:19.804Z,96.20
2018-09-06T01:38:23.262Z,96.20
2018-09-06T01:39:26.645Z,96.20
2018-09-06T01:40:31.208Z,96.20
2018-09-06T01:41:34.647Z,96.20
2018-09-06T01:42:38.058Z,96.40
2018-09-06T01:43:41.496Z,96.30
2018-09-06T01:44:44.916Z,96.30
2018-09-06T01:45:50.336Z,96.40
2018-09-06T01:46:53.788Z,96.40
2018-09-06T01:47:57.168Z,96.40
2018-09-06T01:49:00.589Z,96.50
2018-09-06T01:50:04.591Z,96.50
2018-09-06T01:51:09.419Z,96.60
2018-09-06T01:52:12.927Z,96.60
2018-09-06T01:53:16.464Z,96.60
2018-09-06T01:54:19.900Z,96.70
2018-09-06T01:55:24.534Z,96.70
2018-09-06T01:56:29.012Z,96.70
2018-09-06T01:57:32.427Z,96.80
2018-09-06T01:58:35.880Z,96.80
2018-09-06T01:59:40.532Z,96.80
2018-09-06T02:00:45.058Z,96.90
2018-09-06T02:01:48.509Z,97.00
2018-09-06T02:02:52.008Z,97.00
2018-09-06T02:03:56.020Z,97.00
2018-09-06T02:04:59.423Z,97.10
2018-09-06T02:06:04.117Z,97.20
2018-09-06T02:07:07.725Z,97.20
2018-09-06T02:08:11.115Z,97.20
2018-09-06T02:09:14.584Z,97.30
2018-09-06T02:10:19.066Z,97.30
2018-09-06T02:11:23.663Z,97.30
2018-09-06T02:12:27.101Z,97.30
2018-09-06T02:13:30.499Z,97.30
2018-09-06T02:14:33.892Z,97.40
2018-09-06T02:15:38.872Z,97.40
2018-09-06T02:16:42.328Z,97.60
2018-09-06T02:17:45.768Z,97.50
2018-09-06T02:18:49.175Z,97.50
2018-09-06T02:19:52.566Z,97.50
2018-09-06T02:20:57.164Z,97.60
2018-09-06T02:22:00.680Z,97.60
2018-09-06T02:23:04.090Z,97.60
2018-09-06T02:24:07.534Z,97.60
2018-09-06T02:25:12.475Z,97.60
2018-09-06T02:26:17.652Z,97.60
2018-09-06T02:27:21.089Z,97.60
2018-09-06T02:28:24.559Z,97.60
2018-09-06T02:29:27.968Z,97.50
2018-09-06T02:30:32.574Z,97.50
2018-09-06T02:31:36.957Z,97.50
2018-09-06T02:32:40.424Z,97.50
2018-09-06T02:33:43.864Z,97.50
2018-09-06T02:34:47.255Z,97.50
2018-09-06T02:35:51.732Z,97.60
2018-09-06T02:36:55.173Z,97.70
2018-09-06T02:37:58.592Z,97.90
2018-09-06T02:39:02.020Z,97.90
2018-09-06T02:40:08.042Z,97.90
2018-09-06T02:41:12.457Z,98.00
2018-09-06T02:42:15.939Z,98.10
2018-09-06T02:43:19.461Z,98.10
2018-09-06T02:44:22.923Z,98.20
2018-09-06T02:45:27.940Z,98.30
2018-09-06T02:46:31.487Z,98.40
2018-09-06T02:47:39.356Z,98.50
2018-09-06T02:48:43.612Z,98.50
2018-09-06T02:49:52.410Z,98.50
2018-09-06T02:51:02.996Z,98.40
2018-09-06T02:52:06.482Z,98.40
2018-09-06T02:53:09.893Z,98.40
2018-09-06T02:54:13.315Z,98.60
2018-09-06T02:55:17.782Z,98.60
2018-09-06T02:56:22.309Z,98.60
2018-09-06T02:57:25.724Z,98.60
2018-09-06T02:58:29.253Z,98.70
2018-09-06T02:59:32.726Z,98.70
2018-09-06T03:00:38.401Z,98.90
2018-09-06T03:01:41.905Z,98.90
2018-09-06T03:02:45.311Z,99.10
2018-09-06T03:03:48.796Z,99.10
2018-09-06T03:04:52.241Z,99.20
2018-09-06T03:05:57.353Z,99.40
2018-09-06T03:07:00.771Z,99.40
2018-09-06T03:08:04.186Z,99.50
2018-09-06T03:09:08.255Z,99.70
2018-09-06T03:10:12.753Z,99.70
2018-09-06T03:11:21.442Z,99.80
2018-09-06T03:12:24.956Z,99.80
2018-09-06T03:13:28.344Z,99.90
2018-09-06T03:14:31.831Z,99.90
2018-09-06T03:15:36.511Z,99.90
2018-09-06T03:16:39.952Z,99.90
2018-09-06T03:17:43.368Z,99.80
2018-09-06T03:18:46.842Z,99.80
2018-09-06T03:19:50.239Z,99.70
2018-09-06T03:20:54.637Z,99.70
2018-09-06T03:21:58.095Z,99.70
2018-09-06T03:23:02.056Z,99.70
2018-09-06T03:24:05.444Z,99.70
2018-09-06T03:25:09.824Z,99.60
2018-09-06T03:26:19.261Z,99.90
2018-09-06T03:27:22.734Z,99.60
2018-09-06T03:28:26.111Z,99.50
2018-09-06T03:29:29.621Z,99.50
2018-09-06T03:30:34.065Z,99.50
2018-09-06T03:31:37.544Z,99.40
2018-09-06T03:32:40.999Z,99.40
2018-09-06T03:33:44.980Z,99.30
2018-09-06T03:34:48.383Z,99.30
2018-09-06T03:35:53.492Z,99.10
2018-09-06T03:36:56.989Z,99.10
2018-09-06T03:38:00.676Z,99.10
2018-09-06T03:39:05.481Z,99.10
2018-09-06T03:40:10.480Z,99.10
2018-09-06T03:41:15.041Z,99.10
2018-09-06T03:42:18.685Z,99.10
2018-09-06T03:43:22.621Z,99.40
2018-09-06T03:44:26.017Z,99.30
2018-09-06T03:45:30.500Z,99.40
2018-09-06T03:46:34.003Z,99.60
2018-09-06T03:47:37.404Z,99.70
2018-09-06T03:48:40.798Z,99.80
2018-09-06T03:49:44.212Z,99.90
2018-09-06T03:50:48.610Z,99.90
2018-09-06T03:51:52.122Z,99.90
2018-09-06T03:52:55.524Z,99.90
2018-09-06T03:53:59.006Z,99.90
2018-09-06T03:55:02.752Z,99.90
2018-09-06T03:56:07.854Z,99.90
2018-09-06T03:57:11.293Z,99.90
2018-09-06T03:58:14.813Z,99.90
2018-09-06T03:59:18.199Z,99.90
2018-09-06T04:00:23.290Z,99.90
2018-09-06T04:01:27.683Z,99.90
2018-09-06T04:02:31.185Z,99.90
2018-09-06T04:03:34.569Z,99.90
2018-09-06T04:04:37.992Z,99.90
2018-09-06T04:05:42.422Z,99.90
2018-09-06T04:06:45.936Z,99.90
2018-09-06T04:07:49.396Z,99.90
2018-09-06T04:08:52.817Z,99.90
2018-09-06T04:09:56.303Z,99.90
2018-09-06T04:11:00.923Z,99.90
2018-09-06T04:12:04.337Z,99.90
2018-09-06T04:13:07.820Z,99.90
2018-09-06T04:14:11.221Z,99.90
2018-09-06T04:15:15.733Z,99.90
2018-09-06T04:16:20.248Z,99.90
2018-09-06T04:17:23.663Z,99.90
2018-09-06T04:18:27.354Z,99.90
2018-09-06T04:19:30.651Z,99.90
2018-09-06T04:20:35.607Z,99.90
2018-09-06T04:21:39.668Z,99.90
2018-09-06T04:22:48.934Z,99.90
2018-09-06T04:23:52.403Z,99.90
2018-09-06T04:24:55.944Z,99.90
2018-09-06T04:26:00.408Z,99.90
2018-09-06T04:27:03.850Z,99.90
2018-09-06T04:28:07.265Z,99.90
2018-09-06T04:29:10.748Z,99.90
2018-09-06T04:30:15.590Z,99.90
2018-09-06T04:31:19.900Z,99.90
2018-09-06T04:32:23.417Z,99.90
2018-09-06T04:33:26.962Z,99.90
2018-09-06T04:34:30.365Z,99.90
2018-09-06T04:35:35.460Z,99.90
2018-09-06T04:36:39.164Z,99.90
2018-09-06T04:37:42.678Z,99.90
2018-09-06T04:38:46.080Z,99.90
2018-09-06T04:39:49.473Z,99.90
2018-09-06T04:40:53.949Z,99.90
2018-09-06T04:41:57.405Z,99.90
2018-09-06T04:43:00.876Z,99.90
2018-09-06T04:44:04.347Z,99.90
2018-09-06T04:45:09.004Z,99.90
2018-09-06T04:46:13.429Z,99.90
2018-09-06T04:47:16.888Z,99.90
2018-09-06T04:48:20.276Z,99.90
2018-09-06T04:49:23.731Z,99.90
2018-09-06T04:50:28.193Z,99.90
2018-09-06T04:51:31.660Z,99.90
2018-09-06T04:52:35.092Z,99.90
2018-09-06T04:53:38.565Z,99.90
2018-09-06T04:54:41.956Z,99.90
2018-09-06T04:55:46.743Z,99.90
2018-09-06T04:56:50.211Z,99.90
2018-09-06T04:57:53.680Z,99.90
2018-09-06T04:58:57.108Z,99.90
2018-09-06T05:00:00.523Z,99.90
2018-09-06T05:01:05.630Z,99.90
2018-09-06T05:02:09.376Z,99.90
2018-09-06T05:03:12.765Z,99.90
2018-09-06T05:04:16.244Z,99.90
2018-09-06T05:05:21.013Z,99.90
2018-09-06T05:06:26.020Z,99.90
2018-09-06T05:07:29.447Z,99.90
2018-09-06T05:08:32.853Z,99.90
2018-09-06T05:09:36.293Z,99.90
2018-09-06T05:10:40.790Z,99.90
2018-09-06T05:11:44.244Z,99.90
2018-09-06T05:12:47.693Z,99.90
2018-09-06T05:13:51.090Z,99.90
2018-09-06T05:14:54.504Z,99.90
2018-09-06T05:15:59.023Z,99.90
2018-09-06T05:17:02.655Z,99.90
2018-09-06T05:18:06.760Z,99.90
2018-09-06T05:19:10.188Z,99.90
2018-09-06T05:20:14.787Z,99.90
2018-09-06T05:21:19.330Z,99.90
2018-09-06T05:22:22.745Z,99.90
2018-09-06T05:23:26.119Z,99.90
2018-09-06T05:24:29.744Z,99.90
2018-09-06T05:25:35.457Z,99.90
2018-09-06T05:26:38.908Z,99.90
2018-09-06T05:27:42.312Z,99.90
2018-09-06T05:28:45.732Z,99.90
2018-09-06T05:29:49.142Z,99.90
2018-09-06T05:30:53.718Z,99.90
2018-09-06T05:31:57.267Z,99.90
2018-09-06T05:33:00.865Z,99.90
2018-09-06T05:34:04.314Z,99.90
2018-09-06T05:35:08.940Z,99.90
2018-09-06T05:36:13.464Z,99.90
2018-09-06T05:37:17.180Z,99.90
2018-09-06T05:38:20.594Z,99.90
2018-09-06T05:39:24.060Z,99.90
2018-09-06T05:40:29.368Z,99.90
2018-09-06T05:41:32.942Z,99.90
2018-09-06T05:42:36.387Z,99.90
2018-09-06T05:43:39.796Z,99.90
2018-09-06T05:44:43.220Z,99.90
2018-09-06T05:45:48.177Z,99.90
2018-09-06T05:46:51.685Z,99.90
2018-09-06T05:47:59.028Z,99.90
2018-09-06T05:49:02.425Z,99.90
2018-09-06T05:50:12.508Z,99.90
2018-09-06T05:51:17.065Z,99.90
2018-09-06T05:52:20.610Z,99.90
2018-09-06T05:53:24.078Z,99.90
2018-09-06T05:54:27.609Z,99.90
2018-09-06T05:55:32.425Z,99.90
2018-09-06T05:56:35.892Z,99.90
2018-09-06T05:57:39.304Z,99.90
2018-09-06T05:58:42.796Z,99.90
2018-09-06T05:59:46.256Z,99.90
2018-09-06T06:00:50.643Z,99.90
2018-09-06T06:01:54.109Z,99.90
2018-09-06T06:02:59.589Z,99.90
2018-09-06T06:04:03.042Z,99.90
2018-09-06T06:05:07.432Z,99.90
2018-09-06T06:06:12.412Z,99.90
2018-09-06T06:07:15.878Z,99.90
2018-09-06T06:08:30.580Z,99.90
2018-09-06T06:09:33.956Z,99.90
2018-09-06T06:10:38.477Z,99.90
2018-09-06T06:11:41.967Z,99.90
2018-09-06T06:12:45.339Z,99.90
2018-09-06T06:13:48.840Z,99.90
2018-09-06T06:14:52.232Z,99.90
2018-09-06T06:15:57.011Z,99.90
2018-09-06T06:17:00.573Z,99.90
2018-09-06T06:18:04.248Z,99.90
2018-09-06T06:19:07.651Z,99.90
2018-09-06T06:20:11.991Z,99.90
2018-09-06T06:21:16.388Z,99.90
2018-09-06T06:22:19.872Z,99.90
2018-09-06T06:23:23.333Z,99.90
2018-09-06T06:24:26.723Z,99.90
2018-09-06T06:25:31.131Z,99.90
2018-09-06T06:26:34.608Z,99.90
2018-09-06T06:27:38.107Z,99.90
2018-09-06T06:28:41.500Z,99.90
2018-09-06T06:29:44.941Z,99.90
2018-09-06T06:30:49.968Z,99.90
2018-09-06T06:31:53.534Z,99.90
2018-09-06T06:32:56.974Z,99.90
2018-09-06T06:34:00.613Z,99.90
2018-09-06T06:35:05.067Z,99.90
2018-09-06T06:36:09.499Z,99.90
2018-09-06T06:37:12.915Z,99.90
2018-09-06T06:38:16.440Z,99.90
2018-09-06T06:39:19.925Z,99.90
2018-09-06T06:40:24.642Z,99.90
2018-09-06T06:41:29.134Z,99.90
2018-09-06T06:42:32.544Z,99.90
2018-09-06T06:43:36.052Z,99.90
2018-09-06T06:44:39.480Z,99.90
2018-09-06T06:45:43.957Z,99.90
2018-09-06T06:46:47.501Z,99.90
2018-09-06T06:47:50.912Z,99.90
2018-09-06T06:48:54.317Z,99.90
2018-09-06T06:49:57.736Z,99.90
2018-09-06T06:51:02.783Z,99.90
2018-09-06T06:52:06.444Z,99.90
2018-09-06T06:53:09.838Z,99.90
2018-09-06T06:54:13.453Z,99.90
2018-09-06T06:55:17.847Z,99.90
2018-09-06T06:56:22.161Z,99.90
2018-09-06T06:57:25.563Z,99.90
2018-09-06T06:58:35.564Z,99.90
2018-09-06T06:59:38.968Z,99.90
2018-09-06T07:00:43.895Z,99.90
2018-09-06T07:01:47.368Z,99.90
2018-09-06T07:02:51.345Z,99.90
2018-09-06T07:03:54.736Z,99.90
2018-09-06T07:04:58.154Z,99.90
2018-09-06T07:06:03.142Z,99.90
2018-09-06T07:07:06.908Z,99.90
2018-09-06T07:08:10.788Z,99.90
2018-09-06T07:09:14.197Z,99.90
2018-09-06T07:10:18.606Z,99.90
2018-09-06T07:11:23.469Z,99.90
2018-09-06T07:12:26.937Z,99.90
2018-09-06T07:13:30.333Z,99.90
2018-09-06T07:14:33.743Z,99.90
2018-09-06T07:15:50.179Z,99.90
2018-09-06T07:16:55.705Z,99.90
2018-09-06T07:17:59.092Z,99.90
2018-09-06T07:19:03.015Z,99.90
2018-09-06T07:20:07.584Z,99.90
2018-09-06T07:21:12.197Z,99.90
2018-09-06T07:22:15.637Z,99.90
2018-09-06T07:23:20.340Z,99.90
2018-09-06T07:24:23.916Z,99.90
2018-09-06T07:25:28.757Z,99.90
2018-09-06T07:26:32.175Z,99.90
2018-09-06T07:27:41.319Z,99.90
2018-09-06T07:28:44.735Z,99.90
2018-09-06T07:29:48.125Z,99.90
2018-09-06T07:30:52.993Z,99.90
2018-09-06T07:31:56.531Z,99.90
2018-09-06T07:32:59.956Z,99.90
2018-09-06T07:34:03.384Z,99.90
2018-09-06T07:35:07.731Z,99.90
2018-09-06T07:36:12.229Z,99.90
2018-09-06T07:37:15.674Z,99.90
2018-09-06T07:38:19.440Z,99.90
2018-09-06T07:39:22.913Z,99.90
2018-09-06T07:40:27.482Z,99.90
2018-09-06T07:41:31.965Z,99.90
2018-09-06T07:42:35.451Z,99.90
2018-09-06T07:43:38.913Z,99.90
2018-09-06T07:44:42.299Z,99.90
2018-09-06T07:45:46.808Z,99.90
2018-09-06T07:46:50.313Z,99.90
2018-09-06T07:47:53.664Z,99.90
2018-09-06T07:48:57.077Z,99.90
2018-09-06T07:50:01.009Z,99.90
2018-09-06T07:51:05.548Z,99.90
2018-09-06T07:52:09.079Z,99.90
2018-09-06T07:53:12.505Z,99.90
2018-09-06T07:54:16.016Z,99.90
2018-09-06T07:55:20.472Z,99.90
2018-09-06T07:56:24.679Z,99.90
2018-09-06T07:57:28.177Z,99.90
2018-09-06T07:58:31.707Z,99.90
2018-09-06T07:59:35.134Z,99.90
2018-09-06T08:00:42.043Z,99.90
2018-09-06T08:01:45.448Z,99.90
2018-09-06T08:02:48.879Z,99.90
2018-09-06T08:03:52.420Z,99.90
2018-09-06T08:04:56.121Z,99.90
2018-09-06T08:06:00.573Z,99.90
2018-09-06T08:07:04.028Z,99.90
2018-09-06T08:08:07.459Z,99.90
2018-09-06T08:09:11.733Z,99.90
2018-09-06T08:10:16.216Z,99.90
2018-09-06T08:11:20.621Z,99.90
2018-09-06T08:12:24.089Z,99.90
2018-09-06T08:13:27.521Z,99.90
2018-09-06T08:14:30.940Z,99.90
2018-09-06T08:15:35.368Z,99.90
2018-09-06T08:16:38.867Z,99.90
2018-09-06T08:17:42.259Z,99.90
2018-09-06T08:18:45.753Z,99.90
2018-09-06T08:19:49.132Z,99.90
2018-09-06T08:20:54.093Z,99.90
2018-09-06T08:21:57.527Z,99.90
2018-09-06T08:23:01.533Z,99.90
2018-09-06T08:24:04.997Z,99.90
2018-09-06T08:25:09.509Z,99.90
2018-09-06T08:26:14.028Z,99.90
2018-09-06T08:27:17.440Z,99.90
2018-09-06T08:28:21.032Z,99.90
2018-09-06T08:29:24.472Z,99.90
2018-09-06T08:30:29.032Z,99.90
2018-09-06T08:31:32.504Z,99.90
2018-09-06T08:32:35.964Z,99.90
2018-09-06T08:33:39.363Z,99.90
2018-09-06T08:34:42.761Z,99.90
2018-09-06T08:35:47.847Z,99.90
2018-09-06T08:36:51.682Z,99.90
2018-09-06T08:37:55.111Z,99.90
2018-09-06T08:38:58.537Z,99.90
2018-09-06T08:40:01.949Z,99.90
2018-09-06T08:41:06.575Z,99.90
2018-09-06T08:42:10.065Z,99.90
2018-09-06T08:43:13.501Z,99.90
2018-09-06T08:44:16.957Z,99.90
2018-09-06T08:45:21.510Z,99.90
2018-09-06T08:46:25.780Z,99.90
2018-09-06T08:47:29.212Z,99.90
2018-09-06T08:48:32.650Z,99.90
2018-09-06T08:49:36.151Z,99.90
2018-09-06T08:50:40.519Z,99.90
2018-09-06T08:51:44.004Z,99.90
2018-09-06T08:52:47.415Z,99.90
2018-09-06T08:53:50.852Z,99.90
2018-09-06T08:54:54.260Z,99.90
2018-09-06T08:55:58.692Z,99.90
2018-09-06T08:57:02.278Z,99.90
2018-09-06T08:58:05.718Z,99.90
2018-09-06T08:59:09.448Z,99.90
2018-09-06T09:00:13.924Z,99.90
2018-09-06T09:01:24.726Z,99.90
2018-09-06T09:02:28.175Z,99.90
2018-09-06T09:03:31.643Z,99.90
2018-09-06T09:04:35.170Z,99.90
2018-09-06T09:05:39.547Z,99.90
2018-09-06T09:06:42.964Z,99.90
2018-09-06T09:07:46.459Z,99.90
2018-09-06T09:08:49.894Z,99.90
2018-09-06T09:09:53.324Z,99.90
2018-09-06T09:10:57.909Z,99.90
2018-09-06T09:12:01.423Z,99.90
2018-09-06T09:13:04.824Z,99.90
2018-09-06T09:14:08.376Z,99.90
2018-09-06T09:15:12.719Z,99.90
2018-09-06T09:16:17.276Z,99.90
2018-09-06T09:17:27.488Z,99.90
2018-09-06T09:18:31.024Z,99.90
2018-09-06T09:19:34.396Z,99.90
2018-09-06T09:20:39.129Z,99.90
2018-09-06T09:21:42.613Z,99.90
2018-09-06T09:22:46.143Z,99.90
2018-09-06T09:23:49.592Z,99.90
2018-09-06T09:24:53.076Z,99.90
2018-09-06T09:25:57.517Z,99.90
2018-09-06T09:27:01.169Z,99.90
2018-09-06T09:28:04.597Z,99.90
2018-09-06T09:29:08.065Z,99.90
2018-09-06T09:30:12.534Z,99.90
2018-09-06T09:31:18.519Z,99.90
2018-09-06T09:32:22.012Z,99.90
2018-09-06T09:33:25.388Z,99.90
2018-09-06T09:34:28.805Z,99.90
2018-09-06T09:35:33.619Z,99.90
2018-09-06T09:36:37.092Z,99.90
2018-09-06T09:37:40.552Z,99.90
2018-09-06T09:38:44.045Z,99.90
2018-09-06T09:39:47.575Z,99.90
2018-09-06T09:40:52.349Z,99.90
2018-09-06T09:41:55.770Z,99.90
2018-09-06T09:42:59.227Z,99.90
2018-09-06T09:44:02.694Z,99.90
2018-09-06T09:45:07.394Z,99.90
2018-09-06T09:48:18.337Z,99.90
2018-09-06T09:49:21.781Z,99.90
2018-09-06T09:51:29.675Z,99.90
2018-09-06T09:52:33.099Z,99.90
2018-09-06T09:53:36.484Z,99.90
2018-09-06T09:54:39.961Z,99.90
2018-09-06T09:55:44.598Z,99.90
2018-09-06T09:56:48.049Z,99.90
2018-09-06T09:57:51.569Z,99.90
2018-09-06T09:58:55.124Z,99.90
2018-09-06T09:59:58.571Z,99.90
2018-09-06T10:01:04.089Z,99.90
2018-09-06T10:02:12.810Z,99.90
2018-09-06T10:03:21.592Z,99.90
2018-09-06T10:04:37.284Z,99.90
2018-09-06T10:05:46.868Z,99.90
2018-09-06T10:07:56.656Z,99.90
2018-09-06T10:09:05.485Z,99.90
2018-09-06T10:10:09.986Z,99.90
2018-09-06T10:11:15.288Z,99.90
2018-09-06T10:12:19.168Z,99.90
2018-09-06T10:13:22.610Z,99.90
2018-09-06T10:14:26.012Z,99.90
2018-09-06T10:15:34.297Z,99.90
2018-09-06T10:16:37.789Z,99.90
2018-09-06T10:17:48.008Z,99.90
2018-09-06T10:18:51.449Z,99.90
2018-09-06T10:19:54.919Z,99.90
2018-09-06T10:20:59.625Z,99.90
2018-09-06T10:22:03.150Z,99.90
2018-09-06T10:23:06.580Z,99.90
2018-09-06T10:24:10.116Z,99.90
2018-09-06T10:25:14.764Z,99.90
2018-09-06T10:26:19.521Z,99.90
2018-09-06T10:27:23.037Z,99.90
2018-09-06T10:28:26.448Z,99.90
2018-09-06T10:29:29.863Z,99.90
2018-09-06T10:30:34.307Z,99.90
2018-09-06T10:31:37.781Z,99.90
2018-09-06T10:32:41.212Z,99.90
2018-09-06T10:33:44.651Z,99.90
2018-09-06T10:34:48.052Z,99.90
2018-09-06T10:35:52.557Z,99.90
2018-09-06T10:36:56.008Z,99.90
2018-09-06T10:37:59.593Z,99.90
2018-09-06T10:39:03.201Z,99.90
2018-09-06T10:40:07.646Z,99.90
2018-09-06T10:41:12.101Z,99.90
2018-09-06T10:42:15.544Z,99.90
2018-09-06T10:43:18.931Z,99.90
2018-09-06T10:44:22.405Z,99.90
2018-09-06T10:45:26.830Z,99.90
2018-09-06T10:46:30.605Z,99.90
2018-09-06T10:47:34.004Z,99.90
2018-09-06T10:48:37.443Z,99.90
2018-09-06T10:49:40.927Z,99.90
2018-09-06T10:50:45.456Z,99.90
2018-09-06T10:51:48.907Z,99.90
2018-09-06T10:52:52.340Z,99.90
2018-09-06T10:53:55.731Z,99.80
2018-09-06T10:54:59.124Z,99.60
2018-09-06T10:56:05.117Z,99.40
2018-09-06T10:57:08.871Z,99.10
2018-09-06T10:58:12.364Z,99.20
2018-09-06T10:59:15.760Z,99.20
2018-09-06T11:00:20.605Z,99.40
2018-09-06T11:01:25.645Z,99.50
2018-09-06T11:02:29.136Z,99.40
2018-09-06T11:03:32.707Z,99.20
2018-09-06T11:04:36.135Z,99.10
2018-09-06T11:05:47.569Z,98.90
2018-09-06T11:06:51.057Z,98.90
2018-09-06T11:07:54.615Z,98.40
2018-09-06T11:08:58.020Z,97.70
2018-09-06T11:10:01.510Z,97.50
2018-09-06T11:11:06.051Z,97.70
2018-09-06T11:12:09.536Z,97.80
2018-09-06T11:13:12.952Z,97.80
2018-09-06T11:14:16.523Z,97.80
2018-09-06T11:15:20.895Z,97.70
2018-09-06T11:16:25.597Z,97.70
2018-09-06T11:17:28.996Z,97.80
2018-09-06T11:18:32.434Z,98.00
2018-09-06T11:19:35.820Z,97.90
2018-09-06T11:20:40.624Z,97.90
2018-09-06T11:21:44.323Z,97.80
2018-09-06T11:22:47.810Z,97.90
2018-09-06T11:23:51.204Z,98.00
2018-09-06T11:24:54.629Z,98.10
2018-09-06T11:25:59.057Z,97.70
2018-09-06T11:27:02.485Z,97.60
2018-09-06T11:28:05.972Z,97.80
2018-09-06T11:29:09.380Z,97.90
2018-09-06T11:30:14.845Z,98.20
2018-09-06T11:31:19.320Z,98.30
2018-09-06T11:32:22.744Z,98.40
2018-09-06T11:33:26.208Z,98.60
2018-09-06T11:34:29.548Z,98.80
2018-09-06T11:35:34.466Z,99.10
2018-09-06T11:36:37.967Z,99.20
2018-09-06T11:37:41.387Z,99.20
2018-09-06T11:38:44.789Z,99.10
2018-09-06T11:39:48.220Z,98.90
2018-09-06T11:40:52.751Z,98.90
2018-09-06T11:41:56.228Z,98.70
2018-09-06T11:42:59.615Z,98.70
2018-09-06T11:44:03.038Z,98.80
2018-09-06T11:45:07.516Z,99.10
2018-09-06T11:46:12.355Z,99.10
2018-09-06T11:47:15.920Z,99.10
2018-09-06T11:48:19.268Z,99.20
2018-09-06T11:49:22.721Z,99.10
2018-09-06T11:50:27.073Z,99.20
2018-09-06T11:51:30.704Z,99.20
2018-09-06T11:52:34.095Z,99.30
2018-09-06T11:53:37.875Z,99.30
2018-09-06T11:54:41.355Z,99.10
2018-09-06T11:55:45.817Z,99.00
2018-09-06T11:56:49.304Z,99.00
2018-09-06T11:57:52.966Z,99.00
2018-09-06T11:58:56.572Z,99.10
2018-09-06T12:00:00.026Z,99.20
2018-09-06T12:01:04.954Z,99.40
2018-09-06T12:02:08.463Z,99.50
2018-09-06T12:03:11.832Z,99.30
2018-09-06T12:04:15.379Z,99.30
2018-09-06T12:05:19.910Z,99.30
2018-09-06T12:06:24.145Z,99.40
2018-09-06T12:07:27.551Z,99.30
2018-09-06T12:08:30.961Z,99.40
2018-09-06T12:09:34.357Z,99.60
2018-09-06T12:10:38.836Z,99.80
2018-09-06T12:11:42.308Z,99.90
2018-09-06T12:12:45.758Z,99.90
2018-09-06T12:13:49.172Z,99.80
2018-09-06T12:14:52.564Z,99.60
2018-09-06T12:15:57.216Z,99.50
2018-09-06T12:17:00.929Z,99.20
2018-09-06T12:18:04.369Z,98.60
2018-09-06T12:19:07.829Z,98.60
2018-09-06T12:20:12.245Z,98.30
2018-09-06T12:21:16.914Z,98.10
2018-09-06T12:22:20.387Z,98.00
2018-09-06T12:23:23.820Z,97.80
2018-09-06T12:24:27.207Z,97.80
2018-09-06T12:25:31.615Z,97.80
2018-09-06T12:26:35.056Z,97.90
2018-09-06T12:27:38.444Z,97.80
2018-09-06T12:28:48.267Z,98.00
2018-09-06T12:29:51.668Z,98.30
2018-09-06T12:30:56.005Z,97.70
2018-09-06T12:31:59.447Z,97.60
2018-09-06T12:33:02.909Z,97.70
2018-09-06T12:34:06.458Z,97.80
2018-09-06T12:35:11.004Z,97.90
2018-09-06T12:36:15.576Z,97.90
2018-09-06T12:37:18.997Z,97.70
2018-09-06T12:38:22.404Z,97.70
2018-09-06T12:39:25.849Z,97.50
2018-09-06T12:40:31.197Z,97.40
2018-09-06T12:41:34.633Z,97.50
2018-09-06T12:42:38.054Z,97.60
2018-09-06T12:43:42.007Z,97.80
2018-09-06T12:44:45.508Z,97.80
2018-09-06T12:45:49.890Z,97.80
2018-09-06T12:46:53.369Z,97.80
2018-09-06T12:47:56.765Z,97.70
2018-09-06T12:49:00.157Z,97.60
2018-09-06T12:50:04.127Z,97.50
2018-09-06T12:51:08.576Z,97.40
2018-09-06T12:52:12.033Z,97.00
2018-09-06T12:53:15.462Z,97.20
2018-09-06T12:54:18.845Z,97.10
2018-09-06T12:55:23.395Z,97.00
2018-09-06T12:56:28.066Z,96.90
2018-09-06T12:57:31.513Z,96.90
2018-09-06T12:58:34.904Z,96.80
2018-09-06T12:59:38.299Z,96.80
2018-09-06T13:00:42.739Z,96.70
2018-09-06T13:01:46.178Z,96.70
2018-09-06T13:02:49.589Z,96.70
2018-09-06T13:03:53.000Z,96.60
2018-09-06T13:04:56.396Z,96.90
2018-09-06T13:06:00.738Z,96.30
2018-09-06T13:07:04.196Z,96.30
2018-09-06T13:08:07.600Z,96.30
2018-09-06T13:09:10.996Z,96.40
2018-09-06T13:10:15.490Z,96.50
2018-09-06T13:11:20.202Z,96.50
2018-09-06T13:12:23.640Z,96.70
2018-09-06T13:13:27.031Z,96.60
2018-09-06T13:14:30.424Z,96.70
2018-09-06T13:15:35.447Z,96.70
2018-09-06T13:16:38.864Z,96.80
2018-09-06T13:17:42.281Z,97.00
2018-09-06T13:18:45.825Z,97.10
2018-09-06T13:19:49.132Z,97.10
2018-09-06T13:20:53.785Z,97.00
2018-09-06T13:21:57.100Z,96.80
2018-09-06T13:23:00.554Z,96.70
2018-09-06T13:24:03.938Z,96.70
2018-09-06T13:25:08.419Z,96.70
2018-09-06T13:26:12.813Z,96.70
2018-09-06T13:27:16.287Z,96.80
2018-09-06T13:28:19.724Z,96.70
2018-09-06T13:29:23.157Z,96.20
2018-09-06T13:30:27.602Z,96.20
2018-09-06T13:31:31.119Z,96.30
2018-09-06T13:32:34.596Z,96.30
2018-09-06T13:33:38.057Z,96.30
2018-09-06T13:34:41.448Z,96.30
2018-09-06T13:35:45.930Z,96.50
2018-09-06T13:36:49.332Z,96.30
2018-09-06T13:37:52.737Z,96.20
2018-09-06T13:38:56.196Z,96.30
2018-09-06T13:39:59.608Z,96.00
2018-09-06T13:41:03.978Z,95.30
2018-09-06T13:42:07.576Z,95.20
2018-09-06T13:43:11.056Z,95.20
2018-09-06T13:44:14.499Z,95.50
2018-09-06T13:45:18.884Z,95.80
2018-09-06T13:46:23.388Z,95.60
2018-09-06T13:47:26.845Z,95.50
2018-09-06T13:48:30.313Z,95.60